Time;durP1;ratioP1;P1;durP2;ratioP2;P2;SDS_P1;SDS_P2;PMS_P1;PMS_P2;Temp;Humidity;BMP_temperature;BMP_pressure;BME280_temperature;BME280_humidity;BME280_pressure;Samples;Min_cycle;Max_cycle;Signal;HPM_P1;HPM_P2
2022/10/20 00:01:48;;;;;;;19.83;8.40;;;13.60;1.00;;;;;;5085778;28;20191;-74
2022/10/20 00:04:13;;;;;;;12.13;7.83;;;13.60;1.00;;;;;;5084400;28;20168;-74
2022/10/20 00:06:39;;;;;;;14.30;9.20;;;13.60;1.00;;;;;;5084639;28;20663;-73
2022/10/20 00:09:05;;;;;;;12.30;8.53;;;13.60;1.00;;;;;;5086725;28;20321;-77
2022/10/20 00:11:31;;;;;;;17.73;9.03;;;13.60;1.00;;;;;;5087509;28;20699;-74
2022/10/20 00:13:57;;;;;;;13.77;8.70;;;13.60;1.00;;;;;;5088094;28;20251;-74
2022/10/20 00:16:25;;;;;;;15.10;8.40;;;13.50;1.00;;;;;;5088122;28;20827;-73
2022/10/20 00:18:51;;;;;;;16.00;9.07;;;13.50;1.00;;;;;;5088352;28;20509;-74
2022/10/20 00:21:20;;;;;;;15.87;9.37;;;13.50;1.00;;;;;;5077970;28;20450;-80
2022/10/20 00:23:46;;;;;;;10.90;8.40;;;13.50;1.00;;;;;;5073775;28;20796;-78
2022/10/20 00:26:18;;;;;;;14.63;8.57;;;13.50;1.00;;;;;;5089259;28;20425;-75
2022/10/20 00:28:44;;;;;;;15.60;8.20;;;13.50;1.00;;;;;;5089188;28;20802;-74
2022/10/20 00:31:10;;;;;;;18.10;8.87;;;13.40;1.00;;;;;;5081664;28;20989;-76
2022/10/20 00:33:36;;;;;;;19.80;9.00;;;13.40;1.00;;;;;;5087178;28;20433;-76
2022/10/20 00:36:04;;;;;;;14.30;8.77;;;13.50;1.00;;;;;;5080753;28;20552;-74
2022/10/20 00:38:30;;;;;;;14.40;9.10;;;13.40;1.00;;;;;;5089697;28;20180;-73
2022/10/20 00:40:58;;;;;;;15.60;8.50;;;13.40;1.00;;;;;;5088423;28;20471;-74
2022/10/20 00:43:58;;;;;;;14.40;8.57;;;13.40;1.00;;;;;;5075571;28;20172;-76
2022/10/20 00:46:25;;;;;;;16.33;9.03;;;13.40;1.00;;;;;;5082661;28;20448;-74
2022/10/20 00:48:56;;;;;;;11.00;8.13;;;13.30;1.00;;;;;;5087925;28;20650;-72
2022/10/20 00:51:26;;;;;;;14.83;8.37;;;13.30;1.00;;;;;;5084431;28;20454;-74
2022/10/20 00:53:58;;;;;;;15.83;9.07;;;13.30;1.00;;;;;;5085748;28;20514;-75
2022/10/20 00:56:24;;;;;;;15.67;9.47;;;13.30;1.00;;;;;;5089265;28;20462;-75
2022/10/20 00:58:50;;;;;;;15.00;9.33;;;13.30;1.00;;;;;;5089594;28;20478;-76
2022/10/20 01:01:17;;;;;;;14.00;8.70;;;13.30;1.00;;;;;;5085602;28;20188;-78
2022/10/20 01:03:48;;;;;;;14.60;8.77;;;13.30;1.00;;;;;;5089592;28;20421;-74
2022/10/20 01:06:16;;;;;;;10.70;8.60;;;13.20;1.00;;;;;;5086963;28;20414;-75
2022/10/20 01:08:42;;;;;;;10.93;8.13;;;13.20;1.00;;;;;;5089302;28;20501;-75
2022/10/20 01:11:40;;;;;;;12.97;8.93;;;13.20;1.00;;;;;;5079765;28;20553;-75
2022/10/20 01:14:47;;;;;;;14.63;9.40;;;13.20;1.00;;;;;;5088822;28;20635;-77
2022/10/20 01:17:36;;;;;;;15.43;8.80;;;13.20;1.00;;;;;;5065792;28;20474;-74
2022/10/20 01:20:13;;;;;;;20.30;9.13;;;13.20;1.00;;;;;;5075211;28;20433;-75
2022/10/20 01:23:12;;;;;;;18.27;8.67;;;13.10;1.00;;;;;;5087319;28;20433;-74
2022/10/20 01:26:08;;;;;;;14.07;8.70;;;13.10;1.00;;;;;;5084866;28;20514;-74
2022/10/20 01:28:54;;;;;;;14.83;9.30;;;13.10;1.00;;;;;;5086483;28;20440;-74
2022/10/20 01:31:29;;;;;;;21.60;9.17;;;13.10;1.00;;;;;;5082243;28;20556;-74
2022/10/20 01:34:10;;;;;;;21.97;9.27;;;13.10;1.00;;;;;;5080850;28;20415;-74
2022/10/20 01:36:57;;;;;;;14.47;9.10;;;13.00;1.00;;;;;;5078091;28;20556;-74
2022/10/20 01:39:29;;;;;;;11.73;8.30;;;13.00;1.00;;;;;;5083869;28;20432;-74
2022/10/20 01:42:01;;;;;;;15.60;8.90;;;13.00;1.00;;;;;;5086510;28;20453;-74
2022/10/20 01:44:28;;;;;;;17.70;9.00;;;13.00;1.00;;;;;;5085693;28;20425;-74
2022/10/20 01:46:55;;;;;;;13.07;9.00;;;13.00;1.00;;;;;;5084346;28;20439;-75
2022/10/20 01:49:21;;;;;;;13.90;8.60;;;13.10;1.00;;;;;;5088593;28;20513;-76
2022/10/20 01:51:47;;;;;;;12.83;9.17;;;13.00;1.00;;;;;;5085554;28;20472;-74
2022/10/20 01:54:28;;;;;;;11.83;8.90;;;13.00;1.00;;;;;;5087885;28;20414;-75
2022/10/20 01:57:11;;;;;;;12.80;8.87;;;13.00;1.00;;;;;;5083255;28;20199;-76
2022/10/20 01:59:45;;;;;;;12.40;8.70;;;13.00;1.00;;;;;;5085170;28;20425;-74
2022/10/20 02:02:26;;;;;;;14.83;8.80;;;13.00;1.00;;;;;;5083082;28;20440;-74
2022/10/20 02:05:17;;;;;;;11.97;8.50;;;13.00;1.00;;;;;;5084907;28;20426;-76
2022/10/20 02:07:43;;;;;;;11.10;8.33;;;13.00;1.00;;;;;;5083470;28;20415;-74
2022/10/20 02:10:11;;;;;;;11.10;7.77;;;13.00;1.00;;;;;;5096361;28;20765;-75
2022/10/20 02:12:40;;;;;;;15.97;9.17;;;13.30;1.00;;;;;;5090076;28;20191;-76
2022/10/20 02:15:09;;;;;;;17.77;8.60;;;13.00;1.00;;;;;;5097491;28;20405;-75
2022/10/20 02:17:38;;;;;;;12.27;8.83;;;13.00;1.00;;;;;;5111216;28;20401;-74
2022/10/20 02:20:06;;;;;;;19.90;9.03;;;13.00;1.00;;;;;;5096211;28;20414;-74
2022/10/20 02:22:32;;;;;;;15.87;9.37;;;13.00;1.00;;;;;;5089521;28;20426;-75
2022/10/20 02:24:59;;;;;;;12.97;8.50;;;13.00;1.00;;;;;;5079843;28;20406;-74
2022/10/20 02:27:32;;;;;;;11.27;8.57;;;13.00;1.00;;;;;;5108817;28;20421;-75
2022/10/20 02:30:03;;;;;;;15.30;8.10;;;12.90;1.00;;;;;;5106229;28;20445;-74
2022/10/20 02:32:30;;;;;;;10.73;8.50;;;13.00;1.00;;;;;;5069572;28;20441;-74
2022/10/20 02:34:56;;;;;;;22.10;8.47;;;13.00;1.00;;;;;;5070736;28;20472;-74
2022/10/20 02:37:21;;;;;;;13.23;8.70;;;13.00;1.00;;;;;;5069677;28;20446;-76
2022/10/20 02:39:47;;;;;;;12.73;7.77;;;13.00;1.00;;;;;;5088619;28;20175;-74
2022/10/20 02:42:12;;;;;;;16.43;8.60;;;13.00;1.00;;;;;;5089653;28;20192;-74
2022/10/20 02:44:38;;;;;;;12.53;8.20;;;12.90;1.00;;;;;;5079463;28;20180;-77
2022/10/20 02:47:04;;;;;;;10.40;8.10;;;12.90;1.00;;;;;;5084680;28;20262;-75
2022/10/20 02:49:29;;;;;;;11.20;8.40;;;13.00;1.00;;;;;;5090267;28;20645;-75
2022/10/20 02:51:55;;;;;;;12.40;8.30;;;13.00;1.00;;;;;;5089978;28;20231;-74
2022/10/20 02:54:20;;;;;;;12.97;7.90;;;12.90;1.00;;;;;;5088207;28;20187;-74
2022/10/20 02:56:46;;;;;;;11.63;8.30;;;13.00;1.00;;;;;;5091007;28;20256;-74
2022/10/20 02:59:13;;;;;;;14.07;8.20;;;12.90;1.00;;;;;;5088602;28;20546;-74
2022/10/20 03:01:39;;;;;;;13.67;8.23;;;13.00;1.00;;;;;;5089746;28;20264;-72
2022/10/20 03:04:05;;;;;;;15.53;8.50;;;13.00;1.00;;;;;;5091593;28;20414;-75
2022/10/20 03:06:30;;;;;;;13.30;8.20;;;13.00;1.00;;;;;;5087080;28;20821;-75
2022/10/20 03:08:56;;;;;;;15.40;9.03;;;13.00;1.00;;;;;;5087901;28;20180;-74
2022/10/20 03:11:22;;;;;;;12.50;8.67;;;13.00;1.00;;;;;;5085038;28;20206;-75
2022/10/20 03:13:48;;;;;;;12.60;8.00;;;13.00;1.00;;;;;;5089038;28;20183;-74
2022/10/20 03:16:13;;;;;;;17.33;8.37;;;13.00;1.00;;;;;;5084821;28;20535;-72
2022/10/20 03:18:39;;;;;;;11.07;8.27;;;13.50;1.00;;;;;;5091693;28;20211;-77
2022/10/20 03:21:04;;;;;;;12.97;8.67;;;13.00;1.00;;;;;;5087975;28;20253;-75
2022/10/20 03:23:30;;;;;;;11.90;8.40;;;13.00;1.00;;;;;;5093221;28;20176;-74
2022/10/20 03:26:03;;;;;;;10.43;7.50;;;13.00;1.00;;;;;;5087628;28;20180;-74
2022/10/20 03:28:29;;;;;;;14.60;8.87;;;13.00;1.00;;;;;;5087715;28;20188;-74
2022/10/20 03:30:55;;;;;;;12.17;8.43;;;13.00;1.00;;;;;;5087308;28;20493;-74
2022/10/20 03:33:20;;;;;;;12.60;8.23;;;13.00;1.00;;;;;;5092210;28;20711;-79
2022/10/20 03:35:46;;;;;;;15.00;7.60;;;13.00;1.00;;;;;;5088135;28;20206;-75
2022/10/20 03:38:11;;;;;;;13.60;8.00;;;13.10;1.00;;;;;;5090747;28;20210;-74
2022/10/20 03:40:37;;;;;;;12.60;8.53;;;13.10;1.00;;;;;;5091305;28;20550;-75
2022/10/20 03:43:03;;;;;;;12.43;8.53;;;13.10;1.00;;;;;;5086968;28;20188;-77
2022/10/20 03:45:29;;;;;;;16.93;8.23;;;13.10;1.00;;;;;;5086147;28;20202;-77
2022/10/20 03:47:54;;;;;;;14.13;8.07;;;13.10;1.00;;;;;;5090537;28;21669;-74
2022/10/20 03:50:20;;;;;;;11.60;8.27;;;13.10;1.00;;;;;;5086425;28;20206;-76
2022/10/20 03:52:49;;;;;;;15.00;9.40;;;13.10;1.00;;;;;;5091758;28;20175;-74
2022/10/20 03:55:17;;;;;;;13.00;8.17;;;13.10;1.00;;;;;;5085190;28;20187;-76
2022/10/20 03:57:42;;;;;;;12.00;7.90;;;13.00;1.00;;;;;;5080300;28;20442;-75
2022/10/20 04:00:09;;;;;;;13.03;8.07;;;13.10;1.00;;;;;;5084269;28;20509;-77
2022/10/20 04:02:45;;;;;;;10.40;8.27;;;13.10;1.00;;;;;;5090222;28;20200;-76
2022/10/20 04:05:13;;;;;;;12.13;8.30;;;13.00;1.00;;;;;;5083716;28;20908;-76
2022/10/20 04:07:38;;;;;;;12.00;8.30;;;13.10;1.00;;;;;;5085781;28;20427;-76
2022/10/20 04:10:04;;;;;;;9.87;8.00;;;13.10;1.00;;;;;;5079537;28;20486;-75
2022/10/20 04:12:30;;;;;;;13.77;8.90;;;13.10;1.00;;;;;;5088864;28;20202;-76
2022/10/20 04:14:56;;;;;;;11.37;8.10;;;13.10;1.00;;;;;;5084025;28;20557;-75
2022/10/20 04:17:22;;;;;;;10.80;8.00;;;13.10;1.00;;;;;;5088956;28;20203;-75
2022/10/20 04:19:48;;;;;;;12.30;8.50;;;13.10;1.00;;;;;;5089804;28;20430;-75
2022/10/20 04:22:13;;;;;;;19.10;9.10;;;13.10;1.00;;;;;;5090192;28;20203;-76
2022/10/20 04:24:39;;;;;;;12.50;8.40;;;13.10;1.00;;;;;;5085311;28;20327;-74
2022/10/20 04:27:04;;;;;;;13.93;8.70;;;13.10;1.00;;;;;;5085332;28;20196;-74
2022/10/20 04:29:30;;;;;;;11.07;7.70;;;13.10;1.00;;;;;;5089790;28;20206;-74
2022/10/20 04:31:56;;;;;;;10.43;7.50;;;13.00;1.00;;;;;;5088583;28;20286;-77
2022/10/20 04:34:21;;;;;;;13.60;9.37;;;13.10;1.00;;;;;;5085736;28;20720;-76
2022/10/20 04:36:47;;;;;;;14.53;7.77;;;13.00;1.00;;;;;;5088032;28;20221;-75
2022/10/20 04:39:13;;;;;;;15.20;8.00;;;13.00;1.00;;;;;;5089770;28;20560;-75
2022/10/20 04:41:38;;;;;;;11.13;8.63;;;13.00;1.00;;;;;;5090638;28;20208;-75
2022/10/20 04:44:04;;;;;;;22.23;8.27;;;13.00;1.00;;;;;;5076273;28;20171;-76
2022/10/20 04:46:30;;;;;;;14.60;9.60;;;12.90;1.00;;;;;;5088268;28;20504;-76
2022/10/20 04:48:56;;;;;;;12.30;8.23;;;12.90;1.00;;;;;;5082737;28;20182;-75
2022/10/20 04:51:21;;;;;;;14.63;8.73;;;12.90;1.00;;;;;;5089181;28;20200;-74
2022/10/20 04:53:47;;;;;;;17.60;9.83;;;12.90;1.00;;;;;;5089027;28;20180;-76
2022/10/20 04:56:18;;;;;;;18.17;10.10;;;12.80;1.00;;;;;;5087047;28;20204;-75
2022/10/20 04:59:03;;;;;;;11.90;8.97;;;12.80;1.00;;;;;;5090778;28;20172;-75
2022/10/20 05:01:29;;;;;;;20.63;9.40;;;12.70;1.00;;;;;;5086605;28;20478;-75
2022/10/20 05:03:55;;;;;;;14.37;9.43;;;12.70;1.00;;;;;;5087056;28;20457;-75
2022/10/20 05:06:27;;;;;;;17.93;9.70;;;12.70;1.00;;;;;;5084697;28;20454;-75
2022/10/20 05:08:55;;;;;;;16.50;10.33;;;12.60;1.00;;;;;;5079719;28;20437;-74
2022/10/20 05:11:22;;;;;;;15.60;10.07;;;12.60;1.00;;;;;;5088334;28;20958;-76
2022/10/20 05:13:48;;;;;;;20.90;10.30;;;12.60;1.00;;;;;;5084135;28;20480;-75
2022/10/20 05:16:16;;;;;;;16.00;10.33;;;12.60;1.00;;;;;;5088158;28;20867;-76
2022/10/20 05:18:42;;;;;;;17.70;10.80;;;12.60;1.00;;;;;;5090588;28;20629;-75
2022/10/20 05:21:20;;;;;;;15.07;10.07;;;12.60;1.00;;;;;;5081688;28;20454;-75
2022/10/20 05:23:46;;;;;;;15.93;10.43;;;12.50;1.00;;;;;;5088628;28;20504;-77
2022/10/20 05:26:17;;;;;;;15.83;10.80;;;12.60;1.00;;;;;;5084065;28;20463;-75
2022/10/20 05:28:44;;;;;;;15.47;11.20;;;12.50;1.00;;;;;;5088255;28;20180;-75
2022/10/20 05:31:17;;;;;;;17.93;11.10;;;12.50;1.00;;;;;;5113776;27;20680;-76
2022/10/20 05:33:48;;;;;;;16.70;11.20;;;12.50;1.00;;;;;;5110350;28;20420;-76
2022/10/20 05:36:17;;;;;;;13.97;10.60;;;12.50;1.00;;;;;;5101918;28;20988;-76
2022/10/20 05:38:42;;;;;;;17.23;11.47;;;12.50;1.00;;;;;;5110686;28;20413;-75
2022/10/20 05:41:16;;;;;;;16.63;10.90;;;12.90;1.00;;;;;;5105456;28;20804;-78
2022/10/20 05:43:42;;;;;;;18.30;11.37;;;12.50;1.00;;;;;;5109350;27;20178;-75
2022/10/20 05:46:08;;;;;;;19.03;11.20;;;12.50;1.00;;;;;;5104354;28;20515;-75
2022/10/20 05:48:34;;;;;;;17.90;12.27;;;12.50;1.00;;;;;;5104947;28;20187;-74
2022/10/20 05:51:15;;;;;;;16.43;11.70;;;12.50;1.00;;;;;;5106621;28;20931;-76
2022/10/20 05:53:40;;;;;;;18.30;11.73;;;12.50;1.00;;;;;;5090398;28;20214;-74
2022/10/20 05:56:08;;;;;;;17.37;12.20;;;12.50;1.00;;;;;;5105759;28;20433;-75
2022/10/20 05:58:33;;;;;;;21.58;12.30;;;12.50;1.00;;;;;;5093141;28;20432;-76
2022/10/20 06:01:05;;;;;;;17.90;11.60;;;12.50;1.00;;;;;;5102206;27;20199;-77
2022/10/20 06:03:31;;;;;;;21.10;12.70;;;12.50;1.00;;;;;;5108697;28;20179;-77
2022/10/20 06:06:00;;;;;;;22.03;12.27;;;12.50;1.00;;;;;;5102125;28;20848;-77
2022/10/20 06:08:30;;;;;;;30.73;12.93;;;12.60;1.00;;;;;;5091357;28;20699;-77
2022/10/20 06:10:55;;;;;;;20.47;12.53;;;12.60;1.00;;;;;;5098024;27;20472;-76
2022/10/20 06:13:21;;;;;;;22.80;11.90;;;12.60;1.00;;;;;;5095374;28;20612;-79
2022/10/20 06:15:48;;;;;;;20.67;12.90;;;12.90;16.10;;;;;;5093863;28;20218;-78
2022/10/20 06:18:13;;;;;;;21.10;12.93;;;13.10;16.00;;;;;;5093892;28;20172;-77
2022/10/20 06:20:39;;;;;;;20.83;12.43;;;13.50;1.00;;;;;;5094633;28;20448;-76
2022/10/20 06:23:04;;;;;;;19.70;12.87;;;13.60;1.00;;;;;;5104341;28;20619;-75
2022/10/20 06:25:30;;;;;;;20.43;13.57;;;13.40;1.00;;;;;;5100383;28;20617;-77
2022/10/20 06:27:55;;;;;;;21.13;13.27;;;13.20;1.00;;;;;;5100996;28;20187;-76
2022/10/20 06:30:21;;;;;;;24.27;13.40;;;13.10;1.00;;;;;;5115118;27;20252;-75
2022/10/20 06:32:46;;;;;;;22.60;14.10;;;13.00;1.00;;;;;;5102850;28;20646;-75
2022/10/20 06:35:12;;;;;;;22.07;13.87;;;12.90;1.00;;;;;;5103995;28;20175;-76
2022/10/20 06:37:37;;;;;;;21.80;13.50;;;13.00;1.00;;;;;;5103434;28;20413;-76
2022/10/20 06:40:03;;;;;;;22.87;13.60;;;13.00;1.00;;;;;;5105593;28;20623;-76
2022/10/20 06:42:29;;;;;;;21.60;13.70;;;13.00;1.00;;;;;;5088592;28;20245;-78
2022/10/20 06:44:54;;;;;;;25.33;14.27;;;13.10;1.00;;;;;;5092978;28;20194;-76
2022/10/20 06:47:20;;;;;;;23.90;13.90;;;13.10;1.00;;;;;;5090097;28;20179;-77
2022/10/20 06:49:47;;;;;;;23.53;13.87;;;13.20;1.00;;;;;;5091070;28;20295;-76
2022/10/20 06:52:13;;;;;;;21.07;13.87;;;13.30;1.00;;;;;;5087531;28;20204;-77
2022/10/20 06:54:38;;;;;;;18.90;13.10;;;13.30;1.00;;;;;;5089823;28;20440;-76
2022/10/20 06:57:04;;;;;;;19.67;13.83;;;13.40;1.00;;;;;;5091414;28;20176;-76
2022/10/20 06:59:29;;;;;;;29.27;14.40;;;13.50;1.00;;;;;;5085172;28;20188;-76
2022/10/20 07:01:55;;;;;;;24.43;13.80;;;13.70;1.00;;;;;;5086260;28;20344;-76
2022/10/20 07:04:20;;;;;;;21.27;13.63;;;13.60;1.00;;;;;;5087952;28;20240;-78
2022/10/20 07:06:46;;;;;;;19.80;13.53;;;13.70;1.00;;;;;;5092983;28;20190;-76
2022/10/20 07:09:16;;;;;;;20.03;13.40;;;13.80;1.00;;;;;;5084203;28;20196;-76
2022/10/20 07:11:41;;;;;;;23.73;12.70;;;13.90;1.00;;;;;;5087068;28;20602;-76
2022/10/20 07:14:09;;;;;;;23.80;13.00;;;14.10;1.00;;;;;;5082128;28;20511;-78
2022/10/20 07:16:35;;;;;;;20.07;13.47;;;14.30;1.00;;;;;;5087711;28;20661;-76
2022/10/20 07:19:02;;;;;;;20.17;13.67;;;14.40;1.00;;;;;;5088067;28;20426;-76
2022/10/20 07:21:29;;;;;;;22.93;14.50;;;14.50;1.00;;;;;;5091890;28;20203;-76
2022/10/20 07:23:55;;;;;;;23.60;13.20;;;14.60;1.00;;;;;;5090824;28;20524;-76
2022/10/20 07:26:24;;;;;;;18.57;12.80;;;14.60;1.00;;;;;;5092684;28;20883;-75
2022/10/20 07:28:52;;;;;;;24.07;13.10;;;14.90;1.00;;;;;;5086035;28;20187;-76
2022/10/20 07:31:41;;;;;;;25.13;12.87;;;14.90;1.00;;;;;;5092512;28;20448;-75
2022/10/20 07:34:08;;;;;;;19.97;12.50;;;15.00;1.00;;;;;;5073587;28;20446;-76
2022/10/20 07:36:34;;;;;;;26.27;11.80;;;15.10;1.00;;;;;;5088104;28;20780;-75
2022/10/20 07:39:03;;;;;;;18.60;12.40;;;15.20;1.00;;;;;;5090233;28;20787;-75
2022/10/20 07:41:28;;;;;;;23.17;12.70;;;15.30;1.00;;;;;;5089729;28;20438;-76
2022/10/20 07:43:55;;;;;;;20.93;13.53;;;15.30;1.00;;;;;;5088887;28;20414;-74
2022/10/20 07:46:21;;;;;;;18.50;12.30;;;15.50;1.00;;;;;;5087526;28;20237;-76
2022/10/20 07:48:46;;;;;;;18.17;12.27;;;15.50;1.00;;;;;;5089554;28;20418;-75
2022/10/20 07:51:29;;;;;;;18.53;12.67;;;15.60;1.00;;;;;;5090188;28;20286;-76
2022/10/20 07:53:58;;;;;;;17.30;12.70;;;15.80;1.00;;;;;;5089281;28;20178;-76
2022/10/20 07:56:27;;;;;;;19.80;12.67;;;15.90;1.00;;;;;;5089098;28;20431;-75
2022/10/20 07:58:53;;;;;;;22.77;11.63;;;16.00;1.00;;;;;;5090586;28;20402;-75
2022/10/20 08:01:18;;;;;;;18.40;11.60;;;16.10;1.00;;;;;;5088697;28;20449;-76
2022/10/20 08:03:44;;;;;;;21.53;12.90;;;16.10;1.00;;;;;;5087823;28;20756;-75
2022/10/20 08:06:10;;;;;;;20.67;12.90;;;16.30;1.00;;;;;;5089467;28;20246;-76
2022/10/20 08:08:35;;;;;;;23.10;12.90;;;16.10;1.00;;;;;;5090151;28;20534;-75
2022/10/20 08:11:02;;;;;;;16.47;12.00;;;16.00;1.00;;;;;;5092439;28;20574;-76
2022/10/20 08:13:28;;;;;;;17.90;11.70;;;16.10;1.00;;;;;;5092710;28;20214;-75
2022/10/20 08:15:53;;;;;;;18.97;11.90;;;16.40;1.00;;;;;;5089758;28;20452;-75
2022/10/20 08:18:19;;;;;;;16.83;12.60;;;16.50;1.00;;;;;;5088838;28;20254;-74
2022/10/20 08:20:45;;;;;;;26.73;12.60;;;16.60;1.00;;;;;;5084001;28;20223;-75
2022/10/20 08:23:11;;;;;;;19.07;11.77;;;16.60;1.00;;;;;;5084828;28;20215;-76
2022/10/20 08:25:37;;;;;;;18.73;11.30;;;16.70;1.00;;;;;;5089940;28;20588;-76
2022/10/20 08:28:03;;;;;;;18.53;11.60;;;16.90;1.00;;;;;;5083220;28;20494;-76
2022/10/20 08:30:28;;;;;;;17.20;12.60;;;17.10;1.00;;;;;;5085072;28;20577;-75
2022/10/20 08:32:54;;;;;;;21.87;11.93;;;17.10;1.00;;;;;;5088735;28;20253;-76
2022/10/20 08:35:20;;;;;;;16.33;11.67;;;17.10;1.00;;;;;;5084880;28;20180;-78
2022/10/20 08:37:46;;;;;;;15.70;11.73;;;17.30;1.00;;;;;;5087452;28;20172;-76
2022/10/20 08:40:28;;;;;;;15.77;11.87;;;17.60;1.00;;;;;;5086054;28;20437;-77
2022/10/20 08:42:54;;;;;;;22.10;12.40;;;18.50;1.00;;;;;;5085901;28;20219;-75
2022/10/20 08:45:22;;;;;;;21.53;12.10;;;19.50;1.00;;;;;;5088404;28;20514;-76
2022/10/20 08:47:51;;;;;;;16.27;10.63;;;20.50;1.00;;;;;;5087298;28;20520;-76
2022/10/20 08:50:18;;;;;;;17.97;11.13;;;21.40;1.00;;;;;;5089661;28;20492;-75
2022/10/20 08:52:46;;;;;;;17.33;10.97;;;22.20;1.00;;;;;;5090508;28;20429;-77
2022/10/20 08:55:32;;;;;;;14.23;11.30;;;22.50;1.00;;;;;;5083481;28;20441;-76
2022/10/20 08:58:01;;;;;;;15.03;11.73;;;22.80;1.00;;;;;;5084581;28;20489;-76
2022/10/20 09:00:29;;;;;;;14.47;10.83;;;23.50;1.00;;;;;;5087069;28;20510;-76
2022/10/20 09:02:58;;;;;;;12.70;9.80;;;24.00;1.00;;;;;;5090572;28;20936;-77
2022/10/20 09:05:30;;;;;;;13.00;10.20;;;25.00;1.00;;;;;;5094371;28;20409;-76
2022/10/20 09:07:56;;;;;;;25.13;10.70;;;25.60;1.00;;;;;;5088382;28;20417;-77
2022/10/20 09:10:38;;;;;;;16.17;10.57;;;25.20;1.00;;;;;;5087697;28;20465;-77
2022/10/20 09:13:31;;;;;;;14.27;10.60;;;24.40;1.00;;;;;;5085335;28;20437;-77
2022/10/20 09:16:02;;;;;;;14.13;10.00;;;24.10;1.00;;;;;;5085063;28;20892;-76
2022/10/20 09:18:28;;;;;;;16.53;10.50;;;23.80;1.00;;;;;;5085900;28;20417;-76
2022/10/20 09:21:02;;;;;;;13.93;10.60;;;23.20;1.00;;;;;;5091940;28;20959;-76
2022/10/20 09:23:36;;;;;;;20.13;10.10;;;22.50;1.00;;;;;;5089837;28;20409;-76
2022/10/20 09:26:02;;;;;;;16.03;10.60;;;21.80;1.00;;;;;;5087346;28;20752;-76
2022/10/20 09:28:28;;;;;;;17.50;10.60;;;21.20;1.00;;;;;;5086677;28;20437;-76
2022/10/20 09:30:55;;;;;;;14.60;10.50;;;21.10;1.00;;;;;;5086801;28;21152;-75
2022/10/20 09:33:24;;;;;;;14.60;10.20;;;21.20;1.00;;;;;;5089208;28;20261;-77
2022/10/20 09:35:50;;;;;;;12.47;9.73;;;22.40;1.00;;;;;;5085500;28;20978;-77
2022/10/20 09:38:21;;;;;;;16.63;10.20;;;24.20;1.00;;;;;;5087158;28;20437;-74
2022/10/20 09:41:12;;;;;;;13.47;10.80;;;26.10;1.00;;;;;;5082224;28;20457;-76
2022/10/20 09:43:40;;;;;;;11.07;9.87;;;26.70;1.00;;;;;;5082142;28;20913;-75
2022/10/20 09:46:08;;;;;;;13.83;10.30;;;26.10;1.00;;;;;;5085097;28;20422;-76
2022/10/20 09:48:37;;;;;;;16.80;10.50;;;25.30;1.00;;;;;;5087765;28;20752;-78
2022/10/20 09:51:06;;;;;;;14.00;10.50;;;24.80;1.00;;;;;;5083612;28;20469;-77
2022/10/20 09:53:36;;;;;;;12.67;10.20;;;23.60;1.00;;;;;;5088531;28;20409;-77
2022/10/20 09:56:02;;;;;;;13.50;10.20;;;22.70;1.00;;;;;;5081535;28;20538;-74
2022/10/20 09:58:31;;;;;;;16.53;10.67;;;22.40;1.00;;;;;;5084757;28;20457;-76
2022/10/20 10:01:05;;;;;;;13.90;10.67;;;22.50;1.00;;;;;;5089408;28;20195;-78
2022/10/20 10:03:47;;;;;;;11.87;10.10;;;22.90;1.00;;;;;;5086835;28;20444;-78
2022/10/20 10:06:45;;;;;;;15.00;10.20;;;24.10;1.00;;;;;;5088765;28;20508;-77
2022/10/20 10:09:33;;;;;;;15.60;10.27;;;24.50;1.00;;;;;;5082990;28;20934;-77
2022/10/20 10:12:24;;;;;;;14.33;10.30;;;23.70;1.00;;;;;;5088409;28;20441;-77
2022/10/20 10:14:55;;;;;;;16.30;10.70;;;23.20;1.00;;;;;;5084983;28;20532;-79
2022/10/20 10:17:47;;;;;;;16.20;10.00;;;22.50;1.00;;;;;;5085889;28;20425;-76
2022/10/20 10:20:12;;;;;;;12.07;9.27;;;22.60;1.00;;;;;;5090298;28;20459;-77
2022/10/20 10:22:39;;;;;;;14.10;9.17;;;23.30;1.00;;;;;;5085505;28;20457;-77
2022/10/20 10:25:06;;;;;;;12.80;10.17;;;23.30;1.00;;;;;;5092216;28;20195;-77
2022/10/20 10:27:34;;;;;;;15.20;10.10;;;22.60;1.00;;;;;;5096427;28;20496;-79
2022/10/20 10:30:28;;;;;;;12.20;9.87;;;21.80;1.00;;;;;;5083582;28;20452;-77
2022/10/20 10:32:55;;;;;;;13.77;10.03;;;21.20;1.00;;;;;;5088604;28;22163;-79
2022/10/20 10:35:31;;;;;;;14.77;10.10;;;21.10;1.00;;;;;;5093671;28;20934;-79
2022/10/20 10:37:58;;;;;;;14.90;10.10;;;21.00;1.00;;;;;;5084742;28;20434;-78
2022/10/20 10:40:29;;;;;;;12.73;10.00;;;21.20;1.00;;;;;;5092557;28;20935;-76
2022/10/20 10:43:15;;;;;;;16.10;10.30;;;21.60;1.00;;;;;;5087478;28;20433;-79
2022/10/20 10:46:41;;;;;;;16.03;10.00;;;21.90;1.00;;;;;;5091079;28;20440;-77
2022/10/20 10:49:24;;;;;;;12.63;10.30;;;22.10;1.00;;;;;;5062967;28;20511;-76
2022/10/20 10:52:34;;;;;;;14.53;9.87;;;22.60;1.00;;;;;;5068048;28;20450;-77
2022/10/20 10:55:17;;;;;;;15.17;10.30;;;23.10;1.00;;;;;;5080766;28;20445;-75
2022/10/20 10:58:10;;;;;;;11.03;9.47;;;23.00;1.00;;;;;;5090213;28;20421;-78
2022/10/20 11:01:10;;;;;;;15.70;10.07;;;21.90;1.00;;;;;;5092337;28;20512;-78
2022/10/20 11:03:53;;;;;;;16.90;10.17;;;21.20;1.00;;;;;;5087900;28;20448;-78
2022/10/20 11:06:35;;;;;;;15.73;11.20;;;20.70;1.00;;;;;;5092092;28;20449;-78
2022/10/20 11:09:19;;;;;;;15.73;10.13;;;20.10;1.00;;;;;;5083527;28;20438;-77
2022/10/20 11:12:10;;;;;;;16.30;11.47;;;19.70;1.00;;;;;;5091041;28;20510;-76
2022/10/20 11:15:09;;;;;;;21.40;11.30;;;19.40;1.00;;;;;;5081872;28;20462;-74
2022/10/20 11:18:08;;;;;;;14.83;10.80;;;19.10;1.00;;;;;;5089596;28;20783;-77
2022/10/20 11:20:51;;;;;;;19.50;10.70;;;19.10;1.00;;;;;;5091757;28;20457;-77
2022/10/20 11:23:40;;;;;;;13.00;10.23;;;19.00;1.00;;;;;;5101691;28;20410;-77
2022/10/20 11:26:26;;;;;;;16.17;10.57;;;19.10;1.00;;;;;;5089758;28;20940;-77
2022/10/20 11:28:54;;;;;;;14.50;10.20;;;19.10;1.00;;;;;;5091947;28;20402;-76
2022/10/20 11:31:24;;;;;;;16.33;10.17;;;19.00;1.00;;;;;;5083064;28;20549;-78
2022/10/20 11:33:56;;;;;;;15.30;10.70;;;18.80;1.00;;;;;;5089400;28;20568;-78
2022/10/20 11:36:24;;;;;;;16.93;11.13;;;18.70;1.00;;;;;;5088854;28;20426;-77
2022/10/20 11:38:55;;;;;;;13.00;10.90;;;18.60;1.00;;;;;;5091523;28;20513;-78
2022/10/20 11:41:44;;;;;;;17.03;10.27;;;18.30;1.00;;;;;;5082082;28;20457;-77
2022/10/20 11:44:16;;;;;;;18.63;11.47;;;18.10;1.00;;;;;;5086450;28;20850;-77
2022/10/20 11:46:50;;;;;;;15.27;10.93;;;17.90;1.00;;;;;;5087896;28;20426;-76
2022/10/20 11:49:16;;;;;;;16.33;12.23;;;18.00;1.00;;;;;;5086865;28;20495;-77
2022/10/20 11:52:04;;;;;;;14.13;11.33;;;18.10;1.00;;;;;;5091761;28;20422;-77
2022/10/20 11:55:03;;;;;;;15.53;11.43;;;18.20;1.00;;;;;;5092966;28;20939;-77
2022/10/20 11:57:50;;;;;;;15.53;10.97;;;18.20;1.00;;;;;;5086864;28;20456;-75
2022/10/20 12:00:40;;;;;;;16.70;10.53;;;18.20;1.00;;;;;;5084859;28;20417;-77
2022/10/20 12:03:12;;;;;;;15.20;10.20;;;18.40;1.00;;;;;;5079807;28;20426;-78
2022/10/20 12:05:59;;;;;;;14.53;9.90;;;18.40;1.00;;;;;;5089518;28;20516;-76
2022/10/20 12:08:33;;;;;;;14.13;10.60;;;18.50;1.00;;;;;;5086222;28;20414;-75
2022/10/20 12:11:20;;;;;;;12.77;10.10;;;18.50;1.00;;;;;;5089610;28;20978;-78
2022/10/20 12:14:18;;;;;;;16.10;11.83;;;18.60;1.00;;;;;;5088916;28;20471;-76
2022/10/20 12:16:53;;;;;;;15.27;10.83;;;18.40;1.00;;;;;;5068034;28;20413;-76
2022/10/20 12:19:23;;;;;;;13.27;10.13;;;18.40;1.00;;;;;;5088001;28;20401;-79
2022/10/20 12:22:00;;;;;;;23.93;11.30;;;18.30;1.00;;;;;;5089507;28;20684;-76
2022/10/20 12:24:32;;;;;;;14.83;10.07;;;18.20;1.00;;;;;;5091417;28;20390;-76
2022/10/20 12:27:08;;;;;;;13.17;10.10;;;18.10;1.00;;;;;;5092343;28;20406;-76
2022/10/20 12:29:33;;;;;;;13.73;10.97;;;18.00;1.00;;;;;;5089311;28;20958;-76
2022/10/20 12:32:23;;;;;;;19.63;10.50;;;18.00;1.00;;;;;;5090040;28;20438;-76
2022/10/20 12:34:53;;;;;;;16.43;10.73;;;17.90;1.00;;;;;;5090956;28;20195;-76
2022/10/20 12:37:24;;;;;;;13.80;10.60;;;17.90;1.00;;;;;;5090012;28;20961;-77
2022/10/20 12:39:54;;;;;;;16.93;10.77;;;17.80;1.00;;;;;;5089752;28;20418;-76
2022/10/20 12:42:27;;;;;;;15.00;11.27;;;17.70;1.00;;;;;;5093762;28;20441;-76
2022/10/20 12:44:53;;;;;;;20.87;10.93;;;17.70;1.00;;;;;;5086324;28;20757;-76
2022/10/20 12:47:26;;;;;;;12.13;9.20;;;17.70;1.00;;;;;;5089830;28;20471;-76
2022/10/20 12:49:52;;;;;;;14.77;10.20;;;17.80;1.00;;;;;;5089960;28;20535;-77
2022/10/20 12:52:25;;;;;;;12.20;9.93;;;17.80;1.00;;;;;;5089895;28;20940;-76
2022/10/20 12:55:21;;;;;;;13.27;9.93;;;17.80;1.00;;;;;;5089862;28;20172;-76
2022/10/20 12:57:47;;;;;;;16.03;10.57;;;17.90;1.00;;;;;;5090522;28;20497;-76
2022/10/20 13:00:19;;;;;;;14.20;10.13;;;17.90;1.00;;;;;;5090694;28;20425;-77
2022/10/20 13:02:50;;;;;;;13.93;10.57;;;18.00;1.00;;;;;;5088121;28;20458;-74